^^
Datos históricos de la estación: Murcia-Puente Tocinos
Diario Informe para Marzo 6, 2019 Unidades:  Métrico    Ingés   Ambas
Diario Semanal Mensual Anual
  Máxima: Mínima: Promedio:
Temperatura: 38.4 °C 24.8 °C 29.9 °C
Punto de rocio: 22 °C 14.3 °C 20 °C
Humedad: 81.2% 24.2% 59%
Velocidad viento: 23.3km/h 0km/h 8.2km/h
Racha viento: 51.8km/h - -
Viento- - SSE
Presión: 1014.1 hPa 1008.0 hPa -
Precipitación: 0.0 mm    
 
 
Tabla de datos para Marzo 6, 2019
Hora Temperatura Punto de rocio Presión Viento Velocidad viento Racha viento Humedad Intensidad lluvia(por hora) Nubes
00:04 26.7 °C 21.5 °C 1014.1 hPa ESE 6.4 km/h 13 km/h 73% 0.0 mm
00:09 26.7 °C 21.4 °C 1014.0 hPa ESE 6.3 km/h 12.9 km/h 73% 0.0 mm
00:14 26.7 °C 21.2 °C 1014.0 hPa ESE 5.8 km/h 13 km/h 72.4% 0.0 mm
00:19 26.6 °C 21.1 °C 1014.0 hPa SE 5.8 km/h 12.9 km/h 72% 0.0 mm
00:24 26.6 °C 21.2 °C 1014.0 hPa ESE 5.8 km/h 9.7 km/h 72.3% 0.0 mm
00:29 26.6 °C 21.1 °C 1014.0 hPa Sur 5.6 km/h 9.7 km/h 72% 0.0 mm
00:34 26.7 °C 21.2 °C 1014.0 hPa SO 4.7 km/h 11.1 km/h 72% 0.0 mm
00:39 26.6 °C 21.2 °C 1014.0 hPa NNO 4.9 km/h 14.8 km/h 72.2% 0.0 mm
00:44 26.4 °C 21.2 °C 1014.0 hPa North 5.8 km/h 14.5 km/h 73% 0.0 mm
00:49 26.4 °C 21.3 °C 1014.0 hPa NO 5.6 km/h 9.7 km/h 73.5% 0.0 mm
00:54 26.3 °C 21.3 °C 1013.8 hPa NNO 5 km/h 9.7 km/h 74% 0.0 mm
00:59 26.3 °C 21.3 °C 1013.8 hPa NO 4.9 km/h 8 km/h 74% 0.0 mm
01:04 26.3 °C 21.3 °C 1013.8 hPa NNO 4.7 km/h 9.5 km/h 74% 0.0 mm
01:09 26.3 °C 21.4 °C 1013.6 hPa NO 4.7 km/h 9.7 km/h 74.9% 0.0 mm
01:14 26.2 °C 21.4 °C 1013.6 hPa NO 5 km/h 9.7 km/h 75.1% 0.0 mm
01:19 26.1 °C 21.6 °C 1013.6 hPa NNO 5 km/h 11.9 km/h 76% 0.0 mm
01:24 25.9 °C 21.6 °C 1013.4 hPa NO 5 km/h 11.9 km/h 77% 0.0 mm
01:29 25.8 °C 21.6 °C 1013.4 hPa NO 5.3 km/h 11.3 km/h 77.8% 0.0 mm
01:34 25.8 °C 21.7 °C 1013.4 hPa NO 6.9 km/h 13 km/h 78% 0.0 mm
01:39 25.7 °C 21.7 °C 1013.3 hPa NO 6.8 km/h 12.9 km/h 78.6% 0.0 mm
01:44 25.7 °C 21.8 °C 1013.3 hPa NO 6.5 km/h 11.1 km/h 79% 0.0 mm
01:49 25.6 °C 21.7 °C 1013.3 hPa ONO 6.3 km/h 11.3 km/h 79% 0.0 mm
01:54 25.6 °C 21.9 °C 1013.1 hPa ONO 5.8 km/h 9.7 km/h 80% 0.0 mm
01:59 25.5 °C 21.8 °C 1013.1 hPa ONO 5.6 km/h 9.3 km/h 80% 0.0 mm
02:04 25.4 °C 21.9 °C 1013.5 hPa Oeste 5 km/h 9.7 km/h 80.8% 0.0 mm
02:09 25.4 °C 21.9 °C 1013.5 hPa OSO 5 km/h 11.1 km/h 81% 0.0 mm
02:14 25.3 °C 21.8 °C 1013.5 hPa SSO 5 km/h 15.6 km/h 81% 0.0 mm
02:19 25.4 °C 21.9 °C 1013.8 hPa SO 5.2 km/h 16.1 km/h 81% 0.0 mm
02:24 25.5 °C 22 °C 1013.8 hPa OSO 6.4 km/h 12.9 km/h 81% 0.0 mm
02:29 25.5 °C 22 °C 1013.8 hPa SSO 6.1 km/h 9.3 km/h 80.7% 0.0 mm
02:34 25.6 °C 21.9 °C 1014.1 hPa Oeste 4.7 km/h 11.1 km/h 80% 0.0 mm
02:39 25.7 °C 21.9 °C 1014.1 hPa ESE 4.8 km/h 14.8 km/h 79.6% 0.0 mm
02:44 25.7 °C 21.8 °C 1014.1 hPa Este 5.8 km/h 14.5 km/h 79% 0.0 mm
02:49 25.7 °C 21.8 °C 1014.1 hPa NE 5.3 km/h 7.4 km/h 79% 0.0 mm
02:54 25.7 °C 21.7 °C 1013.7 hPa NE 3.2 km/h 8 km/h 79% 0.0 mm
02:59 25.6 °C 21.9 °C 1013.6 hPa NE 3.2 km/h 7.4 km/h 79.9% 0.0 mm
03:04 25.5 °C 21.8 °C 1013.6 hPa NE 3.2 km/h 8 km/h 80% 0.0 mm
03:09 25.4 °C 21.7 °C 1013.3 hPa ENE 3.3 km/h 8 km/h 80% 0.0 mm
03:14 25.4 °C 21.8 °C 1013.3 hPa NNE 3.9 km/h 8.4 km/h 80.5% 0.0 mm
03:19 25.3 °C 21.8 °C 1013.3 hPa NNE 3.7 km/h 8 km/h 81% 0.0 mm
03:24 25.4 °C 21.9 °C 1013.3 hPa ENE 3.2 km/h 7.6 km/h 81% 0.0 mm
03:29 25.3 °C 21.8 °C 1013.3 hPa NE 3.3 km/h 8 km/h 81% 0.0 mm
03:34 25.3 °C 21.8 °C 1013.3 hPa ENE 3.9 km/h 8 km/h 80.9% 0.0 mm
03:39 25.2 °C 21.4 °C 1013.2 hPa ENE 4 km/h 8.4 km/h 79.6% 0.0 mm
03:44 25.2 °C 21.5 °C 1013.2 hPa ENE 4.7 km/h 9.5 km/h 80% 0.0 mm
03:49 25.2 °C 21.4 °C 1013.2 hPa NE 4.4 km/h 9.7 km/h 79.5% 0.0 mm
03:54 25.2 °C 21.3 °C 1013.0 hPa Este 3.2 km/h 8 km/h 79% 0.0 mm
03:59 25.2 °C 21.1 °C 1013.0 hPa ENE 3.4 km/h 8.4 km/h 78.2% 0.0 mm
04:04 25.2 °C 21.1 °C 1013.0 hPa NNO 3.9 km/h 8 km/h 78% 0.0 mm
04:09 25.2 °C 21.1 °C 1012.8 hPa NNO 3.9 km/h 8 km/h 78% 0.0 mm
04:14 25.2 °C 21.2 °C 1012.7 hPa NNO 3.9 km/h 8 km/h 78.5% 0.0 mm
04:19 25.2 °C 21.2 °C 1012.7 hPa NNO 3.7 km/h 6.4 km/h 78.7% 0.0 mm
04:24 25.2 °C 21.5 °C 1012.5 hPa NNO 2.9 km/h 5.8 km/h 79.9% 0.0 mm
04:29 25.2 °C 21.6 °C 1012.4 hPa NNO 3 km/h 6.4 km/h 80.5% 0.0 mm
04:34 25.2 °C 21.7 °C 1012.4 hPa NO 3.2 km/h 6.4 km/h 81% 0.0 mm
04:39 25.1 °C 21.6 °C 1012.2 hPa ONO 3.2 km/h 6.4 km/h 81% 0.0 mm
04:44 25.1 °C 21.6 °C 1012.2 hPa SSO 2.9 km/h 7.4 km/h 81.1% 0.0 mm
04:49 25.1 °C 21.7 °C 1012.2 hPa ESE 3.1 km/h 8.4 km/h 81.2% 0.0 mm
04:54 25.1 °C 21.6 °C 1012.2 hPa ESE 3.9 km/h 8 km/h 81% 0.0 mm
04:59 25.1 °C 21.6 °C 1012.2 hPa ESE 3.6 km/h 7.4 km/h 81% 0.0 mm
05:04 25 °C 21.4 °C 1012.2 hPa SE 2.9 km/h 8 km/h 80.2% 0.0 mm
05:09 24.9 °C 21.2 °C 1012.2 hPa SE 3 km/h 8 km/h 80% 0.0 mm
05:14 24.9 °C 21.2 °C 1012.2 hPa SE 3.2 km/h 8 km/h 80% 0.0 mm
05:19 24.9 °C 21.1 °C 1012.3 hPa SSE 3.4 km/h 8.4 km/h 79.3% 0.0 mm
05:24 24.9 °C 21 °C 1012.3 hPa SSE 4.7 km/h 8 km/h 79% 0.0 mm
05:29 25 °C 21.2 °C 1012.3 hPa SSE 4.2 km/h 6.4 km/h 79% 0.0 mm
05:34 25.1 °C 21.2 °C 1012.3 hPa SSE 2.2 km/h 7.6 km/h 79% 0.0 mm
05:39 25.1 °C 21.2 °C 1012.1 hPa SO 2.4 km/h 8 km/h 79% 0.0 mm
05:44 25.2 °C 21.3 °C 1012.1 hPa SO 3.2 km/h 8 km/h 79% 0.0 mm
05:49 25.2 °C 21.3 °C 1012.4 hPa SO 3.5 km/h 9.3 km/h 79% 0.0 mm
05:54 25.2 °C 21.3 °C 1012.4 hPa SO 4.7 km/h 9.7 km/h 79% 0.0 mm
05:59 25.2 °C 21.3 °C 1012.4 hPa SO 4.7 km/h 9.7 km/h 79% 0.0 mm
06:04 25.2 °C 21.3 °C 1012.4 hPa SSO 5 km/h 8.7 km/h 79% 0.0 mm
06:09 25.2 °C 21.2 °C 1012.2 hPa SO 5 km/h 10.3 km/h 78.7% 0.0 mm
06:14 25.1 °C 21 °C 1012.2 hPa OSO 5 km/h 11.3 km/h 78% 0.0 mm
06:19 25.1 °C 21 °C 1012.2 hPa SO 5 km/h 11.3 km/h 78% 0.0 mm
06:24 25.1 °C 21 °C 1012.1 hPa OSO 5 km/h 10 km/h 78% 0.0 mm
06:29 25.1 °C 21 °C 1012.1 hPa OSO 5 km/h 9.7 km/h 78% 0.0 mm
06:34 25.1 °C 21 °C 1012.1 hPa OSO 5 km/h 8 km/h 78% 0.0 mm
06:39 25.1 °C 21 °C 1012.0 hPa OSO 4.7 km/h 9.3 km/h 77.9% 0.0 mm
06:44 25 °C 20.9 °C 1012.0 hPa OSO 3.2 km/h 9.7 km/h 77.8% 0.0 mm
06:49 25 °C 20.7 °C 1012.0 hPa OSO 3.2 km/h 6.4 km/h 77% 0.0 mm
06:54 25 °C 20.7 °C 1011.8 hPa OSO 2.9 km/h 7.6 km/h 77% 0.0 mm
06:59 24.9 °C 20.6 °C 1011.7 hPa OSO 3.3 km/h 8 km/h 77% 0.0 mm
07:04 24.9 °C 20.6 °C 1012.1 hPa OSO 4.6 km/h 8 km/h 77% 0.0 mm
07:09 24.9 °C 20.6 °C 1012.1 hPa OSO 4.5 km/h 8 km/h 77% 0.0 mm
07:14 24.9 °C 20.6 °C 1012.1 hPa OSO 3.9 km/h 11.1 km/h 77% 0.0 mm
07:19 24.9 °C 20.6 °C 1012.1 hPa SO 3.9 km/h 11.3 km/h 76.9% 0.0 mm
07:24 24.9 °C 20.4 °C 1011.9 hPa OSO 3.9 km/h 10 km/h 76.1% 0.0 mm
07:29 24.8 °C 20.3 °C 1011.9 hPa OSO 4.2 km/h 11.9 km/h 76% 0.0 mm
07:34 24.8 °C 20.3 °C 1012.1 hPa OSO 5.8 km/h 11.3 km/h 76% 0.0 mm
07:39 24.8 °C 20.4 °C 1012.1 hPa OSO 5.9 km/h 9.7 km/h 76.5% 0.0 mm
07:44 24.8 °C 20.5 °C 1012.1 hPa OSO 6.4 km/h 9.7 km/h 77% 0.0 mm
07:49 24.8 °C 20.5 °C 1012.3 hPa SO 6.1 km/h 8 km/h 77% 0.0 mm
07:54 24.8 °C 20.5 °C 1012.3 hPa SSO 4.7 km/h 6.9 km/h 77% 0.0 mm
07:59 24.8 °C 20.5 °C 1012.3 hPa SE 4.5 km/h 8 km/h 77% 0.0 mm
08:04 24.8 °C 20.7 °C 1012.3 hPa ESE 3.9 km/h 8.4 km/h 77.6% 0.0 mm
08:09 24.8 °C 20.6 °C 1012.2 hPa ESE 3.9 km/h 8 km/h 77.5% 0.0 mm
08:14 24.8 °C 20.6 °C 1012.2 hPa SSE 3.9 km/h 8 km/h 77.4% 0.0 mm
08:19 24.9 °C 20.7 °C 1012.3 hPa ESE 3.9 km/h 8 km/h 77.3% 0.0 mm
08:24 25.1 °C 20.7 °C 1012.3 hPa ESE 3.9 km/h 8 km/h 76.8% 0.0 mm
08:29 25.2 °C 20.8 °C 1012.3 hPa SE 3.7 km/h 8 km/h 76.6% 0.0 mm
08:34 25.6 °C 21 °C 1012.4 hPa SE 2.9 km/h 4.8 km/h 76.1% 0.0 mm
08:39 25.8 °C 21 °C 1012.4 hPa SSE 2.4 km/h 5.8 km/h 74.6% 0.0 mm
08:44 26 °C 21 °C 1012.4 hPa Calm   6.4 km/h 73.8% 0.0 mm
08:49 26.3 °C 20.9 °C 1012.5 hPa Calm   6.4 km/h 72.4% 0.0 mm
08:54 26.4 °C 20.9 °C 1012.5 hPa Calm   6.4 km/h 71.8% 0.0 mm
08:59 26.6 °C 20.9 °C 1012.5 hPa NNO 0.6 km/h 8 km/h 71.4% 0.0 mm
09:04 26.6 °C 20.9 °C 1012.5 hPa NNO 2.9 km/h 8 km/h 71% 0.0 mm
09:09 26.6 °C 20.9 °C 1012.2 hPa NNO 2.8 km/h 6.9 km/h 71.1% 0.0 mm
09:14 26.6 °C 20.9 °C 1012.1 hPa Oeste 2.2 km/h 8 km/h 71% 0.0 mm
09:19 26.7 °C 20.9 °C 1012.4 hPa OSO 2.5 km/h 8 km/h 71% 0.0 mm
09:24 26.7 °C 21 °C 1012.4 hPa Oeste 3.9 km/h 8 km/h 71% 0.0 mm
09:29 26.7 °C 21 °C 1012.4 hPa SSO 4 km/h 9.3 km/h 70.9% 0.0 mm
09:34 26.8 °C 20.9 °C 1012.4 hPa Sur 4.7 km/h 9.7 km/h 70% 0.0 mm
09:39 27.1 °C 20.9 °C 1012.2 hPa Sur 4.7 km/h 11.9 km/h 68.8% 0.0 mm
09:44 27.2 °C 20.8 °C 1012.1 hPa SSE 4.7 km/h 11.3 km/h 68% 0.0 mm
09:49 27.3 °C 20.9 °C 1012.1 hPa SO 4.9 km/h 11.9 km/h 67.9% 0.0 mm
09:54 27.3 °C 20.9 °C 1012.1 hPa SO 6.4 km/h 11.3 km/h 67.7% 0.0 mm
09:59 27.4 °C 21 °C 1012.1 hPa SSO 6.1 km/h 11.3 km/h 68% 0.0 mm
10:04 27.7 °C 21 °C 1012.1 hPa SO 5 km/h 10 km/h 67.3% 0.0 mm
10:09 27.8 °C 20.9 °C 1012.1 hPa Sur 5 km/h 9.7 km/h 66% 0.0 mm
10:14 28 °C 21 °C 1012.1 hPa SE 5 km/h 8 km/h 66% 0.0 mm
10:19 28.2 °C 21 °C 1012.1 hPa Oeste 4.8 km/h 8 km/h 65.1% 0.0 mm
10:24 28.3 °C 20.8 °C 1011.9 hPa ONO 3.9 km/h 8 km/h 64% 0.0 mm
10:29 28.4 °C 20.7 °C 1011.9 hPa NO 4 km/h 9.5 km/h 63% 0.0 mm
10:34 28.6 °C 20.8 °C 1011.9 hPa Oeste 4.7 km/h 11.1 km/h 62.9% 0.0 mm
10:39 28.7 °C 20.8 °C 1011.8 hPa NO 4.7 km/h 11.3 km/h 62.4% 0.0 mm
10:44 29 °C 20.8 °C 1011.8 hPa NNE 5 km/h 10 km/h 61.3% 0.0 mm
10:49 29.3 °C 20.7 °C 1011.8 hPa OSO 4.9 km/h 9.7 km/h 60% 0.0 mm
10:54 29.3 °C 20.7 °C 1011.7 hPa Oeste 4.7 km/h 9.7 km/h 59.9% 0.0 mm
10:59 29.4 °C 20.6 °C 1011.7 hPa NO 4.7 km/h 10 km/h 59% 0.0 mm
11:04 29.5 °C 20.5 °C 1011.7 hPa SO 5 km/h 11.1 km/h 58.2% 0.0 mm
11:09 29.6 °C 20.3 °C 1011.5 hPa Sur 4.9 km/h 11.3 km/h 57.3% 0.0 mm
11:14 29.7 °C 20.2 °C 1011.5 hPa Oeste 4.7 km/h 8 km/h 56.6% 0.0 mm
11:19 30 °C 20.3 °C 1011.5 hPa SO 4.5 km/h 8 km/h 56% 0.0 mm
11:24 30.3 °C 20.3 °C 1011.5 hPa SO 3.9 km/h 10.3 km/h 55.1% 0.0 mm
11:29 30.3 °C 20.3 °C 1011.5 hPa SSO 4.2 km/h 11.3 km/h 55% 0.0 mm
11:34 30.4 °C 20.2 °C 1011.6 hPa Oeste 5.8 km/h 11.1 km/h 54.4% 0.0 mm
11:39 30.4 °C 20.1 °C 1011.6 hPa NO 5.6 km/h 11.3 km/h 54% 0.0 mm
11:44 30.7 °C 20.3 °C 1011.6 hPa Este 4.7 km/h 8 km/h 53.7% 0.0 mm
11:49 31 °C 20.3 °C 1011.6 hPa ESE 4.4 km/h 7.6 km/h 52.9% 0.0 mm
11:54 31.2 °C 20.4 °C 1011.3 hPa SSO 3.2 km/h 9.3 km/h 52.5% 0.0 mm
11:59 31.3 °C 20.3 °C 1011.2 hPa OSO 3.5 km/h 9.7 km/h 52% 0.0 mm
12:04 31.7 °C 20.5 °C 1011.2 hPa North 4.7 km/h 9.7 km/h 51.7% 0.0 mm
12:09 31.9 °C 20.3 °C 1011.1 hPa NO 4.7 km/h 9.3 km/h 50.6% 0.0 mm
12:14 31.9 °C 20.3 °C 1011.1 hPa NNO 4.7 km/h 11.1 km/h 50.3% 0.0 mm
12:19 32 °C 20.4 °C 1011.2 hPa North 4.8 km/h 11.3 km/h 50.4% 0.0 mm
12:24 32.2 °C 20.5 °C 1011.2 hPa NNE 5.8 km/h 11.9 km/h 50.1% 0.0 mm
12:29 32.2 °C 20.5 °C 1011.2 hPa NE 5.9 km/h 11.3 km/h 50.1% 0.0 mm
12:34 32.3 °C 20.5 °C 1011.2 hPa NE 6.4 km/h 14.8 km/h 49.9% 0.0 mm
12:39 32.4 °C 20.7 °C 1011.2 hPa NNE 6.5 km/h 14.8 km/h 49.9% 0.0 mm
12:44 32.7 °C 20.7 °C 1011.2 hPa NNE 6.9 km/h 15.6 km/h 49.2% 0.0 mm
12:49 32.9 °C 20.7 °C 1011.2 hPa NE 7.2 km/h 17.2 km/h 48.9% 0.0 mm
12:54 33.1 °C 20.6 °C 1010.9 hPa NNE 8.7 km/h 18 km/h 48% 0.0 mm
12:59 33.2 °C 20.4 °C 1010.8 hPa NNE 9.2 km/h 17.7 km/h 47.1% 0.0 mm
13:04 33.4 °C 20.4 °C 1010.8 hPa NE 11.1 km/h 17.7 km/h 46.7% 0.0 mm
13:09 33.6 °C 20.5 °C 1010.8 hPa NE 10.9 km/h 18.5 km/h 46.1% 0.0 mm
13:14 33.7 °C 20.4 °C 1010.8 hPa NNE 10 km/h 20.4 km/h 45.8% 0.0 mm
13:19 33.9 °C 20.3 °C 1010.8 hPa NNE 10 km/h 20.9 km/h 45% 0.0 mm
13:24 34.2 °C 20.4 °C 1010.7 hPa NE 10.3 km/h 20.9 km/h 44.5% 0.0 mm
13:29 34.6 °C 20.5 °C 1010.7 hPa NE 10.6 km/h 24.1 km/h 44% 0.0 mm
13:34 34.7 °C 20.7 °C 1010.7 hPa NE 11.9 km/h 24.1 km/h 44% 0.0 mm
13:39 34.8 °C 20.7 °C 1010.7 hPa NE 11.8 km/h 22.5 km/h 43.8% 0.0 mm
13:44 34.9 °C 20.7 °C 1010.7 hPa NE 11.1 km/h 31.7 km/h 43.6% 0.0 mm
13:49 35.1 °C 21.1 °C 1010.7 hPa NE 12 km/h 32.2 km/h 44.2% 0.0 mm
13:54 35.3 °C 21.4 °C 1010.5 hPa NE 16.1 km/h 24.1 km/h 44.4% 0.0 mm
13:59 35.5 °C 21.2 °C 1010.5 hPa NE 15.4 km/h 25.9 km/h 43.5% 0.0 mm
14:04 35.6 °C 21.5 °C 1010.6 hPa NE 13 km/h 25.7 km/h 44.2% 0.0 mm
14:09 35.4 °C 21.1 °C 1010.6 hPa NE 13.2 km/h 24.1 km/h 43.6% 0.0 mm
14:14 35.5 °C 20.5 °C 1010.6 hPa NNE 14 km/h 20.9 km/h 41.9% 0.0 mm
14:19 35.7 °C 20.4 °C 1010.6 hPa ENE 13.4 km/h 26.2 km/h 41.1% 0.0 mm
14:24 35.7 °C 21.4 °C 1010.3 hPa Este 10.3 km/h 25.7 km/h 43.5% 0.0 mm
14:29 35.4 °C 19.7 °C 1010.2 hPa ESE 10.3 km/h 19.3 km/h 40% 0.0 mm
14:34 35.9 °C 19.2 °C 1010.2 hPa SE 10.3 km/h 19.3 km/h 37.7% 0.0 mm
14:39 36.2 °C 20.1 °C 1010.0 hPa SE 10 km/h 18.5 km/h 39% 0.0 mm
14:44 36.1 °C 20 °C 1009.9 hPa ESE 8.7 km/h 22.5 km/h 39.1% 0.0 mm
14:49 35.8 °C 19.7 °C 1009.9 hPa ESE 9.4 km/h 22.5 km/h 39% 0.0 mm
14:54 36.2 °C 20 °C 1009.7 hPa SE 13 km/h 20.4 km/h 39% 0.0 mm
14:59 36.4 °C 19.8 °C 1009.7 hPa ESE 12.8 km/h 22.5 km/h 38% 0.0 mm
15:04 36.6 °C 19.7 °C 1009.7 hPa ESE 11.9 km/h 22.5 km/h 37.3% 0.0 mm
15:09 36.7 °C 19.6 °C 1009.5 hPa ESE 11.6 km/h 20.9 km/h 36.9% 0.0 mm
15:14 37.1 °C 19.4 °C 1009.5 hPa ESE 10.3 km/h 16.1 km/h 35.9% 0.0 mm
15:19 37.5 °C 18.5 °C 1009.5 hPa SE 10 km/h 18.5 km/h 33% 0.0 mm
15:24 37.8 °C 17.4 °C 1009.5 hPa SSE 8.4 km/h 37.8 km/h 30.4% 0.0 mm
15:29 38.2 °C 14.8 °C 1009.5 hPa Sur 9.7 km/h 37.8 km/h 25.2% 0.0 mm
15:34 38.4 °C 14.4 °C 1009.7 hPa Sur 16.4 km/h 37 km/h 24.2% 0.0 mm
15:39 38.4 °C 14.8 °C 1009.7 hPa SSO 17.5 km/h 40.7 km/h 24.8% 0.0 mm
15:44 38.2 °C 14.8 °C 1009.7 hPa Sur 22 km/h 40.2 km/h 25.1% 0.0 mm
15:49 38.1 °C 15.2 °C 1009.7 hPa Sur 21.5 km/h 35.4 km/h 25.9% 0.0 mm
15:54 37.8 °C 15.6 °C 1009.6 hPa Sur 19 km/h 29 km/h 27% 0.0 mm
15:59 37.7 °C 15.6 °C 1009.6 hPa SSE 17.8 km/h 22.5 km/h 27.3% 0.0 mm
16:04 37.5 °C 17.8 °C 1009.6 hPa ESE 13.7 km/h 22.5 km/h 31.5% 0.0 mm
16:09 37.2 °C 18.4 °C 1009.4 hPa ESE 13.2 km/h 18.5 km/h 33.3% 0.0 mm
16:14 37.2 °C 18.2 °C 1009.4 hPa ESE 11.9 km/h 19.3 km/h 32.9% 0.0 mm
16:19 37.1 °C 18 °C 1009.4 hPa Este 11.7 km/h 19.3 km/h 32.7% 0.0 mm
16:24 36.9 °C 18.1 °C 1009.3 hPa Este 11.1 km/h 19.3 km/h 33.3% 0.0 mm
16:29 37 °C 17.6 °C 1009.3 hPa ESE 10.4 km/h 16.7 km/h 32% 0.0 mm
16:34 37.1 °C 17.4 °C 1009.4 hPa Este 8.7 km/h 16.1 km/h 31.5% 0.0 mm
16:39 37.3 °C 17.3 °C 1009.4 hPa ESE 7.7 km/h 13 km/h 30.9% 0.0 mm
16:44 37.5 °C 16.2 °C 1009.4 hPa Sur 5.8 km/h 22.2 km/h 28.5% 0.0 mm
16:49 37.7 °C 15.8 °C 1009.6 hPa SSO 7.9 km/h 24.1 km/h 27.6% 0.0 mm
16:54 37.7 °C 16 °C 1009.6 hPa SSO 11.9 km/h 24.1 km/h 27.9% 0.0 mm
16:59 37.8 °C 15.9 °C 1009.6 hPa OSO 12.7 km/h 43.9 km/h 27.5% 0.0 mm
17:04 37.9 °C 15.6 °C 1011.4 hPa Oeste 14 km/h 51.8 km/h 26.9% 0.0 mm
17:09 37.5 °C 14.4 °C 1011.4 hPa OSO 17 km/h 51.5 km/h 25.4% 0.0 mm
17:14 37.2 °C 15.1 °C 1011.4 hPa SO 23.3 km/h 45.1 km/h 27.1% 0.0 mm
17:19 36.8 °C 14.7 °C 1011.4 hPa OSO 21.5 km/h 35.4 km/h 26.8% 0.0 mm
17:24 36.5 °C 14.3 °C 1010.8 hPa SO 17.2 km/h 25.7 km/h 26.7% 0.0 mm
17:29 36.2 °C 14.7 °C 1010.8 hPa SO 16.1 km/h 26.2 km/h 27.9% 0.0 mm
17:34 35.9 °C 14.7 °C 1010.8 hPa SO 13.7 km/h 25.7 km/h 28.3% 0.0 mm
17:39 35.9 °C 14.8 °C 1010.1 hPa Oeste 11.9 km/h 19.3 km/h 28.4% 0.0 mm
17:44 36 °C 14.7 °C 1010.1 hPa OSO 8.4 km/h 14.5 km/h 28.1% 0.0 mm
17:49 36.2 °C 14.6 °C 1010.1 hPa OSO 7 km/h 11.1 km/h 27.8% 0.0 mm
17:54 36.3 °C 14.7 °C 1009.5 hPa Sur 3.9 km/h 11.3 km/h 27.7% 0.0 mm
17:59 36.3 °C 14.7 °C 1009.5 hPa SSE 4.1 km/h 8.4 km/h 27.7% 0.0 mm
18:04 36.3 °C 14.7 °C 1009.5 hPa SSE 4.6 km/h 8 km/h 27.6% 0.0 mm
18:09 36.3 °C 14.5 °C 1009.2 hPa SSE 4.2 km/h 8.4 km/h 27.2% 0.0 mm
18:14 36.3 °C 14.8 °C 1009.2 hPa ENE 3.2 km/h 9.3 km/h 27.8% 0.0 mm
18:19 36.2 °C 14.8 °C 1009.2 hPa ENE 3.4 km/h 9.7 km/h 28% 0.0 mm
18:24 36.2 °C 14.9 °C 1009.2 hPa ENE 3.9 km/h 11.1 km/h 28.2% 0.0 mm
18:29 36 °C 15.1 °C 1009.2 hPa NE 4.8 km/h 11.3 km/h 29% 0.0 mm
18:34 35.8 °C 15.5 °C 1009.2 hPa NE 6.9 km/h 11.3 km/h 29.9% 0.0 mm
18:39 35.7 °C 15.5 °C 1009.1 hPa NE 6.8 km/h 11.3 km/h 30.1% 0.0 mm
18:44 35.7 °C 15.9 °C 1009.1 hPa NE 6.5 km/h 12.2 km/h 31% 0.0 mm
18:49 35.3 °C 15.7 °C 1009.1 hPa NE 6.8 km/h 13.7 km/h 31% 0.0 mm
18:54 35.1 °C 15.5 °C 1008.9 hPa NNE 7.6 km/h 14.8 km/h 31% 0.0 mm
18:59 34.9 °C 15.4 °C 1008.9 hPa NNE 8.4 km/h 14.8 km/h 31.2% 0.0 mm
19:04 34.9 °C 15.3 °C 1008.9 hPa NE 10 km/h 15.6 km/h 31% 0.0 mm
19:09 34.9 °C 15.4 °C 1008.9 hPa NNE 9.6 km/h 16.1 km/h 31.3% 0.0 mm
19:14 34.9 °C 15.5 °C 1008.9 hPa NE 8.7 km/h 16.7 km/h 31.4% 0.0 mm
19:19 34.8 °C 16.5 °C 1008.9 hPa NE 9.4 km/h 24.5 km/h 33.7% 0.0 mm
19:24 34.5 °C 19.1 °C 1008.4 hPa NNE 11.1 km/h 24.1 km/h 40.5% 0.0 mm
19:29 34 °C 20 °C 1008.4 hPa NE 11.9 km/h 24.1 km/h 44% 0.0 mm
19:34 33.6 °C 20.6 °C 1008.4 hPa NE 13.7 km/h 26.2 km/h 46.7% 0.0 mm
19:39 33.2 °C 21 °C 1008.1 hPa NE 14.4 km/h 29.1 km/h 49% 0.0 mm
19:44 32.8 °C 21 °C 1008.1 hPa NE 16.1 km/h 29.6 km/h 49.9% 0.0 mm
19:49 32.7 °C 20.9 °C 1008.4 hPa NNE 16.2 km/h 29.6 km/h 50% 0.0 mm
19:54 32.3 °C 20.9 °C 1008.4 hPa NE 16.4 km/h 29.6 km/h 51% 0.0 mm
19:59 31.9 °C 20.9 °C 1008.4 hPa NNE 17.7 km/h 34.6 km/h 52.3% 0.0 mm
20:04 31.8 °C 21.1 °C 1008.4 hPa NNE 20.1 km/h 35.4 km/h 53.3% 0.0 mm
20:09 31.5 °C 21.4 °C 1008.0 hPa NNE 20 km/h 33.8 km/h 55.2% 0.0 mm
20:14 31.2 °C 21.5 °C 1008.0 hPa NNE 19.8 km/h 30.6 km/h 56.4% 0.0 mm
20:19 31 °C 21.5 °C 1008.4 hPa NNE 18.8 km/h 30.6 km/h 57% 0.0 mm
20:24 30.8 °C 21.4 °C 1008.4 hPa NNE 16.4 km/h 30.6 km/h 57.3% 0.0 mm
20:29 30.6 °C 21.4 °C 1008.4 hPa NNE 17.5 km/h 29 km/h 58% 0.0 mm
20:34 30.4 °C 21.2 °C 1008.6 hPa NNE 20.1 km/h 29 km/h 58% 0.0 mm
20:39 30.3 °C 21.1 °C 1008.6 hPa NE 19 km/h 27.8 km/h 58% 0.0 mm
20:44 30.2 °C 21 °C 1008.6 hPa NE 16.4 km/h 27.4 km/h 58% 0.0 mm
20:49 30.2 °C 21 °C 1008.8 hPa NE 15.7 km/h 24.1 km/h 58% 0.0 mm
20:54 30.2 °C 21.3 °C 1008.8 hPa NE 14 km/h 24.1 km/h 58.9% 0.0 mm
20:59 30.2 °C 21.3 °C 1008.8 hPa NE 14 km/h 27 km/h 59% 0.0 mm
21:04 30.2 °C 21.1 °C 1009.4 hPa NE 14 km/h 29.8 km/h 58.3% 0.0 mm
21:09 30.2 °C 20.9 °C 1009.4 hPa Este 14.7 km/h 30.6 km/h 57.5% 0.0 mm
21:14 30 °C 21.3 °C 1009.4 hPa ESE 16.4 km/h 35.2 km/h 59.9% 0.0 mm
21:19 29.6 °C 21.5 °C 1009.4 hPa Este 16.7 km/h 35.4 km/h 61.5% 0.0 mm
21:24 29.5 °C 21.4 °C 1009.4 hPa ESE 17.2 km/h 29.6 km/h 62% 0.0 mm
21:29 29.5 °C 21.2 °C 1009.4 hPa SE 16.3 km/h 29 km/h 61.1% 0.0 mm
21:34 29.7 °C 20.9 °C 1010.2 hPa SSE 14 km/h 22 km/h 59.2% 0.0 mm
21:39 30.1 °C 20.6 °C 1010.2 hPa SSE 13.4 km/h 22.5 km/h 56.7% 0.0 mm
21:44 30.6 °C 20.6 °C 1010.2 hPa Sur 12.2 km/h 22.5 km/h 55.4% 0.0 mm
21:49 30.8 °C 21.1 °C 1010.8 hPa SSO 12.1 km/h 27.8 km/h 56.5% 0.0 mm
21:54 30.4 °C 21.5 °C 1010.8 hPa SO 11.9 km/h 29.8 km/h 59% 0.0 mm
21:59 29.8 °C 21.2 °C 1010.8 hPa SSO 15 km/h 38.9 km/h 60% 0.0 mm
22:04 29.5 °C 21 °C 1011.6 hPa SSE 20.9 km/h 38.6 km/h 60% 0.0 mm
22:09 29.3 °C 20.9 °C 1011.6 hPa SE 20.1 km/h 35.4 km/h 60.6% 0.0 mm
22:14 29.2 °C 21 °C 1011.6 hPa SE 18.4 km/h 24.1 km/h 61.6% 0.0 mm
22:19 29 °C 21.1 °C 1011.6 hPa Sur 15.3 km/h 22.5 km/h 62.2% 0.0 mm
22:24 28.8 °C 21.2 °C 1011.6 hPa OSO 8.7 km/h 13.7 km/h 63.3% 0.0 mm
22:29 28.7 °C 21.3 °C 1011.6 hPa Oeste 8 km/h 14.5 km/h 64% 0.0 mm
22:34 28.7 °C 21.2 °C 1012.4 hPa Oeste 6.5 km/h 18 km/h 64% 0.0 mm
22:39 28.7 °C 21 °C 1012.4 hPa SSO 7.6 km/h 25.9 km/h 63.4% 0.0 mm
22:44 28.5 °C 20.5 °C 1012.4 hPa SSO 10 km/h 33.3 km/h 62.1% 0.0 mm
22:49 28.5 °C 19.9 °C 1012.7 hPa SSO 12.9 km/h 33.8 km/h 59.5% 0.0 mm
22:54 28.6 °C 19.7 °C 1012.7 hPa SSO 19 km/h 33.8 km/h 58.8% 0.0 mm
22:59 28.7 °C 19.4 °C 1012.7 hPa SSO 19.3 km/h 33.3 km/h 57.2% 0.0 mm
23:04 28.8 °C 19.2 °C 1013.3 hPa Sur 19.8 km/h 33.8 km/h 56.1% 0.0 mm
23:09 28.8 °C 19.7 °C 1013.3 hPa SSE 19.4 km/h 32.2 km/h 57.9% 0.0 mm
23:14 28.4 °C 19.9 °C 1013.3 hPa SSE 18.4 km/h 31.7 km/h 59.9% 0.0 mm
23:19 28.3 °C 20 °C 1013.3 hPa SSE 17.8 km/h 32.2 km/h 61% 0.0 mm
23:24 28.3 °C 19.9 °C 1013.0 hPa SE 16.4 km/h 24.1 km/h 60.6% 0.0 mm
23:29 28.3 °C 19.7 °C 1013.0 hPa SSE 14.6 km/h 24.1 km/h 59.6% 0.0 mm
23:34 28.3 °C 19.5 °C 1013.0 hPa SO 10.3 km/h 20.9 km/h 59% 0.0 mm
23:39 28.4 °C 19.6 °C 1012.7 hPa ENE 9.1 km/h 14.5 km/h 58.9% 0.0 mm
23:44 28.4 °C 19.6 °C 1012.7 hPa NE 6.5 km/h 13 km/h 59% 0.0 mm
23:49 28.4 °C 19.6 °C 1012.7 hPa ENE 6.6 km/h 15.6 km/h 59.1% 0.0 mm
23:54 28.3 °C 19.9 °C 1012.0 hPa NE 6.9 km/h 16.1 km/h 60.4% 0.0 mm
23:59 28.2 °C 19.9 °C 1012.0 hPa NE 8 km/h 16.7 km/h 60.8% 0.0 mm
Murcia-Puente Tocinos, España
Compliments of Weather Underground - 2.75 mb

La estación de MeteoMurcia.com, publica sus datos en los siguientes proyectos:

Weather Underground PWS IMURCIAP2 Meteoclimatic www.awekas.at

W3Counter
Web Analytics